Time;durP1;ratioP1;P1;durP2;ratioP2;P2;SDS_P1;SDS_P2;PMS_P1;PMS_P2;Temp;Humidity;BMP_temperature;BMP_pressure;BME280_temperature;BME280_humidity;BME280_pressure;Samples;Min_cycle;Max_cycle;Signal;HPM_P1;HPM_P2
2022/12/09 00:00:25;;;;;;;6.40;6.20;;;20.30;51.30;;;;;;5016246;28;20478;-50
2022/12/09 00:02:52;;;;;;;6.53;6.23;;;20.30;51.30;;;;;;5016813;28;20525;-53
2022/12/09 00:05:20;;;;;;;6.30;6.10;;;20.30;51.30;;;;;;5013132;28;20467;-52
2022/12/09 00:07:47;;;;;;;6.40;6.20;;;20.40;51.40;;;;;;5012870;28;20478;-50
2022/12/09 00:10:13;;;;;;;6.80;6.50;;;20.30;51.30;;;;;;5012836;28;20830;-50
2022/12/09 00:12:40;;;;;;;6.57;6.27;;;20.30;51.30;;;;;;5013022;28;20471;-51
2022/12/09 00:15:08;;;;;;;6.00;5.83;;;20.30;51.30;;;;;;5012662;28;20466;-50
2022/12/09 00:17:35;;;;;;;6.63;6.43;;;20.30;51.30;;;;;;5013715;28;20852;-50
2022/12/09 00:20:02;;;;;;;6.87;6.67;;;20.30;51.40;;;;;;5012913;28;20998;-49
2022/12/09 00:22:30;;;;;;;6.60;6.40;;;20.30;51.40;;;;;;5012600;28;20452;-49
2022/12/09 00:24:57;;;;;;;6.27;6.07;;;20.30;51.40;;;;;;5014487;28;20843;-52
2022/12/09 00:27:24;;;;;;;6.70;6.40;;;20.30;51.40;;;;;;5013045;28;20442;-50
2022/12/09 00:29:51;;;;;;;6.83;6.63;;;20.30;51.40;;;;;;5012010;28;20859;-51
2022/12/09 00:32:17;;;;;;;6.53;6.33;;;20.30;51.50;;;;;;5013316;28;20533;-49
2022/12/09 00:34:44;;;;;;;7.37;7.07;;;20.20;51.40;;;;;;5013593;28;20462;-50
2022/12/09 00:37:11;;;;;;;6.83;6.63;;;20.20;51.40;;;;;;5014100;28;20476;-53
2022/12/09 00:39:39;;;;;;;6.50;6.30;;;20.30;51.60;;;;;;5015168;28;21008;-49
2022/12/09 00:42:06;;;;;;;6.60;6.30;;;20.30;51.60;;;;;;5012513;28;20975;-50
2022/12/09 00:44:33;;;;;;;6.90;6.60;;;20.20;51.50;;;;;;5011961;28;20478;-48
2022/12/09 00:47:00;;;;;;;6.43;6.23;;;20.30;51.60;;;;;;5012174;28;20446;-50
2022/12/09 00:49:27;;;;;;;6.67;6.43;;;20.30;51.60;;;;;;5012908;28;20504;-50
2022/12/09 00:51:54;;;;;;;7.13;6.93;;;20.20;51.50;;;;;;5013375;28;20445;-50
2022/12/09 00:54:20;;;;;;;7.37;7.07;;;20.20;51.40;;;;;;5012425;28;20987;-49
2022/12/09 00:56:49;;;;;;;6.77;6.57;;;20.20;51.50;;;;;;5024805;28;20449;-50
2022/12/09 00:59:16;;;;;;;6.03;5.93;;;20.20;51.50;;;;;;5031608;28;20441;-49
2022/12/09 01:01:43;;;;;;;6.50;6.27;;;20.20;52.00;;;;;;5031878;28;20451;-52
2022/12/09 01:04:09;;;;;;;6.80;6.60;;;20.20;51.50;;;;;;5031657;28;20532;-50
2022/12/09 01:06:36;;;;;;;6.47;6.20;;;20.20;51.50;;;;;;5027839;28;20452;-51
2022/12/09 01:09:03;;;;;;;6.60;6.27;;;20.20;51.50;;;;;;5011924;28;20573;-51
2022/12/09 01:11:30;;;;;;;6.00;5.90;;;20.20;51.50;;;;;;5012682;28;20533;-50
2022/12/09 01:14:00;;;;;;;6.63;6.33;;;20.20;51.60;;;;;;5011895;28;20456;-49
2022/12/09 01:16:29;;;;;;;6.80;6.60;;;20.20;51.50;;;;;;5013327;28;20478;-49
2022/12/09 01:18:59;;;;;;;6.47;6.27;;;20.20;51.50;;;;;;5014395;28;20445;-50
2022/12/09 01:21:26;;;;;;;6.83;6.47;;;20.20;51.50;;;;;;5011645;28;20441;-49
2022/12/09 01:23:53;;;;;;;6.23;6.00;;;20.10;51.50;;;;;;5012059;28;20472;-49
2022/12/09 01:26:20;;;;;;;6.07;5.87;;;20.20;52.10;;;;;;5011510;28;20553;-49
2022/12/09 01:28:51;;;;;;;6.10;5.90;;;20.20;51.50;;;;;;5011344;28;20479;-50
2022/12/09 01:31:24;;;;;;;6.30;6.10;;;20.20;51.60;;;;;;5011692;28;20567;-49
2022/12/09 01:33:52;;;;;;;6.07;5.87;;;20.10;51.50;;;;;;5011625;28;20798;-49
2022/12/09 01:36:20;;;;;;;6.53;6.23;;;20.10;51.50;;;;;;5011646;28;20550;-51
2022/12/09 01:38:48;;;;;;;5.90;5.70;;;20.10;51.50;;;;;;5014105;28;20881;-51
2022/12/09 01:41:16;;;;;;;5.97;5.77;;;20.10;51.50;;;;;;5011454;28;20448;-50
2022/12/09 01:43:44;;;;;;;5.70;5.50;;;20.10;51.50;;;;;;5011492;28;20450;-49
2022/12/09 01:46:12;;;;;;;5.80;5.60;;;20.10;51.50;;;;;;5065916;23;20511;-47
2022/12/09 01:48:44;;;;;;;6.30;6.10;;;20.10;51.50;;;;;;5039616;28;21005;-47
2022/12/09 01:51:13;;;;;;;5.80;5.60;;;20.10;51.50;;;;;;5031303;28;20534;-47
2022/12/09 01:53:44;;;;;;;6.23;5.93;;;20.10;51.50;;;;;;5032923;28;20480;-47
2022/12/09 01:56:15;;;;;;;6.23;5.93;;;20.10;51.60;;;;;;5030656;28;20461;-47
2022/12/09 01:58:42;;;;;;;6.00;5.80;;;20.10;51.50;;;;;;5015375;28;20493;-48
2022/12/09 02:01:09;;;;;;;5.93;5.73;;;20.10;51.60;;;;;;5015084;28;20445;-48
2022/12/09 02:03:36;;;;;;;5.90;5.70;;;20.10;51.60;;;;;;5015158;28;20933;-48
2022/12/09 02:06:04;;;;;;;6.10;5.93;;;20.10;51.60;;;;;;5025951;28;20560;-48
2022/12/09 02:08:31;;;;;;;6.13;5.93;;;20.10;51.60;;;;;;5034929;28;20680;-49
2022/12/09 02:11:08;;;;;;;7.13;6.73;;;20.10;51.60;;;;;;5034414;28;20481;-48
2022/12/09 02:13:47;;;;;;;6.13;5.93;;;20.10;51.60;;;;;;5034753;28;20539;-48
2022/12/09 02:16:18;;;;;;;5.87;5.63;;;20.10;51.60;;;;;;5032586;28;20845;-47
2022/12/09 02:18:50;;;;;;;5.70;5.60;;;20.10;51.60;;;;;;5034651;28;21003;-50
2022/12/09 02:21:25;;;;;;;5.93;5.73;;;20.10;51.60;;;;;;5034603;28;20889;-48
2022/12/09 02:24:00;;;;;;;5.40;5.20;;;20.10;51.60;;;;;;5034468;28;20842;-47
2022/12/09 02:26:36;;;;;;;6.20;5.90;;;20.10;51.60;;;;;;5034278;28;20468;-48
2022/12/09 02:29:30;;;;;;;5.90;5.70;;;20.10;51.60;;;;;;5034184;28;20498;-49
2022/12/09 02:32:16;;;;;;;5.97;5.73;;;20.10;51.60;;;;;;5034403;28;20527;-48
2022/12/09 02:34:51;;;;;;;5.93;5.73;;;20.00;51.60;;;;;;5034099;28;20828;-50
2022/12/09 02:37:23;;;;;;;6.13;5.93;;;20.00;51.60;;;;;;5034573;28;20912;-48
2022/12/09 02:39:53;;;;;;;6.10;5.90;;;20.00;51.60;;;;;;5034192;28;20441;-48
2022/12/09 02:42:23;;;;;;;6.33;6.03;;;20.00;51.60;;;;;;5034076;28;20955;-47
2022/12/09 02:44:52;;;;;;;6.57;6.37;;;20.00;51.60;;;;;;5033782;28;20487;-48
2022/12/09 02:47:22;;;;;;;6.90;6.60;;;20.00;51.60;;;;;;5034133;28;20822;-48
2022/12/09 02:49:54;;;;;;;6.90;6.60;;;20.00;51.60;;;;;;5033789;28;20569;-47
2022/12/09 02:52:22;;;;;;;6.07;5.87;;;20.10;51.70;;;;;;5034135;28;20845;-47
2022/12/09 02:54:50;;;;;;;6.30;6.00;;;20.00;51.60;;;;;;5033732;28;21067;-47
2022/12/09 02:57:22;;;;;;;5.70;5.50;;;20.00;51.60;;;;;;5033776;28;20483;-48
2022/12/09 02:59:49;;;;;;;6.27;5.97;;;20.00;51.60;;;;;;5033632;28;20958;-47
2022/12/09 03:02:21;;;;;;;5.77;5.67;;;20.00;51.60;;;;;;5033806;28;20485;-48
2022/12/09 03:04:55;;;;;;;6.43;6.13;;;20.00;51.60;;;;;;5028600;28;20450;-48
2022/12/09 03:07:35;;;;;;;5.63;5.43;;;20.00;51.70;;;;;;5014019;28;20452;-50
2022/12/09 03:10:06;;;;;;;6.00;5.80;;;20.00;51.60;;;;;;5013760;28;20483;-46
2022/12/09 03:12:34;;;;;;;6.37;6.10;;;20.00;51.60;;;;;;5013899;28;20564;-49
2022/12/09 03:15:06;;;;;;;7.00;6.70;;;20.00;51.60;;;;;;5013828;28;20529;-49
2022/12/09 03:17:37;;;;;;;5.87;5.67;;;20.00;51.60;;;;;;5014890;28;20873;-48
2022/12/09 03:20:10;;;;;;;6.33;6.03;;;20.00;51.60;;;;;;5013730;28;20873;-48
2022/12/09 03:22:40;;;;;;;5.77;5.67;;;20.00;51.50;;;;;;5013686;28;20452;-47
2022/12/09 03:25:10;;;;;;;6.70;6.50;;;20.00;51.60;;;;;;5016677;28;20505;-48
2022/12/09 03:27:42;;;;;;;6.17;5.97;;;20.00;51.60;;;;;;5014712;28;20859;-47
2022/12/09 03:30:10;;;;;;;6.70;6.40;;;20.00;51.60;;;;;;5014251;28;20988;-48
2022/12/09 03:32:38;;;;;;;5.93;5.83;;;20.00;51.60;;;;;;5015887;28;20449;-48
2022/12/09 03:35:10;;;;;;;6.10;5.90;;;20.00;51.60;;;;;;5032490;28;20469;-49
2022/12/09 03:37:40;;;;;;;5.83;5.67;;;20.00;51.60;;;;;;5034062;28;20536;-48
2022/12/09 03:40:10;;;;;;;5.83;5.53;;;20.00;51.60;;;;;;5033470;28;20472;-46
2022/12/09 03:42:42;;;;;;;6.17;5.87;;;20.00;51.60;;;;;;5033151;28;20813;-49
2022/12/09 03:45:12;;;;;;;5.93;5.77;;;20.00;51.60;;;;;;5032836;28;20567;-49
2022/12/09 03:47:39;;;;;;;6.83;6.60;;;20.00;51.60;;;;;;5033677;28;20866;-47
2022/12/09 03:50:08;;;;;;;6.13;5.93;;;20.00;51.60;;;;;;5032659;28;20572;-47
2022/12/09 03:52:40;;;;;;;6.07;5.83;;;20.00;51.70;;;;;;5034398;28;20441;-52
2022/12/09 03:55:13;;;;;;;5.87;5.67;;;19.90;51.60;;;;;;5032213;28;20900;-48
2022/12/09 03:57:43;;;;;;;5.40;5.30;;;19.90;51.60;;;;;;5032789;28;20441;-48
2022/12/09 04:00:11;;;;;;;5.93;5.73;;;20.00;52.20;;;;;;5032450;28;20467;-46
2022/12/09 04:02:38;;;;;;;6.00;5.80;;;19.90;51.60;;;;;;5032577;28;20533;-48
2022/12/09 04:05:07;;;;;;;6.10;5.90;;;20.00;51.70;;;;;;5032250;28;20897;-48
2022/12/09 04:07:34;;;;;;;6.27;6.07;;;19.90;51.60;;;;;;5032662;28;20445;-49
2022/12/09 04:10:01;;;;;;;6.07;5.97;;;19.90;51.60;;;;;;5032617;28;20481;-50
2022/12/09 04:12:28;;;;;;;5.93;5.73;;;19.90;51.60;;;;;;5023107;28;20477;-49
2022/12/09 04:14:55;;;;;;;6.07;5.87;;;20.00;51.60;;;;;;5014424;28;20529;-48
2022/12/09 04:17:22;;;;;;;5.97;5.77;;;19.90;51.50;;;;;;5012420;28;20469;-48
2022/12/09 04:19:49;;;;;;;6.20;6.00;;;20.00;51.50;;;;;;5012547;28;20517;-48
2022/12/09 04:22:17;;;;;;;6.30;6.10;;;20.00;51.50;;;;;;5012441;28;20461;-50
2022/12/09 04:24:44;;;;;;;6.60;6.30;;;20.00;51.50;;;;;;5012396;28;20953;-50
2022/12/09 04:27:11;;;;;;;5.60;5.50;;;20.00;51.50;;;;;;5012413;28;20460;-48
2022/12/09 04:29:38;;;;;;;6.10;5.90;;;20.00;51.60;;;;;;5012152;28;20573;-48
2022/12/09 04:32:05;;;;;;;6.23;6.13;;;20.00;51.60;;;;;;5012454;28;20700;-48
2022/12/09 04:34:33;;;;;;;5.33;5.23;;;20.00;51.60;;;;;;5013750;28;20441;-47
2022/12/09 04:37:00;;;;;;;6.07;5.97;;;20.00;51.60;;;;;;5012620;28;20469;-48
2022/12/09 04:39:28;;;;;;;6.53;6.33;;;20.00;51.80;;;;;;5012187;28;20536;-47
2022/12/09 04:41:55;;;;;;;6.20;5.80;;;20.00;52.00;;;;;;5031194;28;20449;-47
2022/12/09 04:44:22;;;;;;;5.77;5.57;;;20.00;52.00;;;;;;5031810;28;20445;-49
2022/12/09 04:46:49;;;;;;;6.50;6.30;;;20.00;52.30;;;;;;5031861;28;20477;-47
2022/12/09 04:49:16;;;;;;;6.90;6.60;;;20.00;52.30;;;;;;5032662;28;20447;-48
2022/12/09 04:51:43;;;;;;;6.67;6.47;;;19.90;52.40;;;;;;5034009;28;20477;-48
2022/12/09 04:54:13;;;;;;;8.10;6.50;;;19.90;52.40;;;;;;5031844;28;20889;-49
2022/12/09 04:56:41;;;;;;;5.83;5.63;;;19.90;52.40;;;;;;5031737;28;20468;-48
2022/12/09 04:59:08;;;;;;;6.10;5.90;;;19.90;52.50;;;;;;5031580;28;20536;-47
2022/12/09 05:01:35;;;;;;;6.60;6.40;;;19.90;52.50;;;;;;5015463;28;20546;-49
2022/12/09 05:04:02;;;;;;;7.13;6.80;;;19.90;52.50;;;;;;5011974;28;20453;-47
2022/12/09 05:06:29;;;;;;;6.77;6.47;;;20.00;53.10;;;;;;5011903;28;20501;-46
2022/12/09 05:08:56;;;;;;;6.20;6.00;;;19.90;52.50;;;;;;5011787;28;20442;-49
2022/12/09 05:11:23;;;;;;;6.00;5.90;;;19.90;52.50;;;;;;5012653;28;20929;-48
2022/12/09 05:13:53;;;;;;;6.30;6.10;;;19.90;52.50;;;;;;5011922;28;20458;-48
2022/12/09 05:16:19;;;;;;;6.07;5.90;;;19.90;52.50;;;;;;5011787;28;20556;-47
2022/12/09 05:18:49;;;;;;;6.40;6.20;;;19.90;52.50;;;;;;5012288;28;20453;-47
2022/12/09 05:21:19;;;;;;;6.40;6.20;;;19.90;52.40;;;;;;5028181;28;20481;-48
2022/12/09 05:23:47;;;;;;;6.73;6.53;;;19.90;52.40;;;;;;5031910;28;20940;-47
2022/12/09 05:26:15;;;;;;;6.40;6.23;;;19.90;53.10;;;;;;5031454;28;20991;-48
2022/12/09 05:28:42;;;;;;;7.30;7.00;;;19.90;52.50;;;;;;5035073;28;20531;-48
2022/12/09 05:31:13;;;;;;;6.40;6.23;;;19.90;52.50;;;;;;5034987;28;20820;-47
2022/12/09 05:33:40;;;;;;;7.10;6.90;;;19.90;52.60;;;;;;5035476;28;20537;-47
2022/12/09 05:36:10;;;;;;;6.93;6.73;;;19.90;52.60;;;;;;5036452;28;20721;-47
2022/12/09 05:38:38;;;;;;;6.63;6.53;;;19.90;52.60;;;;;;5034922;28;20532;-47
2022/12/09 05:41:05;;;;;;;6.73;6.53;;;19.90;52.60;;;;;;5035209;28;20463;-47
2022/12/09 05:43:32;;;;;;;7.00;6.80;;;19.90;52.60;;;;;;5035271;28;20998;-47
2022/12/09 05:46:00;;;;;;;7.17;6.97;;;19.90;52.50;;;;;;5036517;28;20476;-49
2022/12/09 05:48:28;;;;;;;7.40;7.00;;;19.90;52.40;;;;;;5034771;28;20545;-48
2022/12/09 05:50:59;;;;;;;7.23;6.80;;;19.90;52.30;;;;;;5035192;28;21013;-49
2022/12/09 05:53:26;;;;;;;7.00;6.70;;;20.00;52.40;;;;;;5035814;28;20523;-49
2022/12/09 05:55:53;;;;;;;8.43;7.80;;;20.00;52.80;;;;;;5035189;28;20495;-49
2022/12/09 05:58:20;;;;;;;10.40;9.30;;;20.10;53.40;;;;;;5034782;28;20967;-46
2022/12/09 06:00:47;;;;;;;12.53;9.47;;;20.10;54.50;;;;;;5035817;28;20467;-47
2022/12/09 06:03:14;;;;;;;18.57;10.53;;;20.10;54.70;;;;;;5035102;28;20531;-47
2022/12/09 06:05:43;;;;;;;18.00;8.40;;;20.10;56.00;;;;;;5032899;28;20571;-56
2022/12/09 06:08:10;;;;;;;10.23;8.27;;;20.10;58.30;;;;;;5035051;28;20848;-54
2022/12/09 06:10:39;;;;;;;16.97;9.53;;;20.20;58.70;;;;;;5035424;28;20484;-51
2022/12/09 06:13:07;;;;;;;15.00;8.77;;;20.20;58.40;;;;;;5035782;28;20448;-53
2022/12/09 06:15:34;;;;;;;9.07;8.30;;;20.20;57.90;;;;;;5035341;28;20546;-53
2022/12/09 06:18:01;;;;;;;12.53;7.70;;;20.30;57.50;;;;;;5035366;28;20449;-53
2022/12/09 06:20:28;;;;;;;9.40;8.00;;;20.30;57.00;;;;;;5034850;28;20536;-51
2022/12/09 06:22:56;;;;;;;11.17;8.23;;;20.30;56.60;;;;;;5036311;28;20484;-51
2022/12/09 06:25:23;;;;;;;9.53;8.67;;;20.30;56.20;;;;;;5037072;28;20477;-52
2022/12/09 06:27:52;;;;;;;10.80;9.90;;;20.30;55.90;;;;;;5037150;28;20481;-53
2022/12/09 06:30:19;;;;;;;9.10;8.30;;;20.30;55.60;;;;;;5035116;28;20481;-52
2022/12/09 06:32:46;;;;;;;9.53;8.57;;;20.30;55.30;;;;;;5035835;28;20463;-50
2022/12/09 06:35:13;;;;;;;15.40;9.40;;;20.30;55.00;;;;;;5034721;28;20457;-53
2022/12/09 06:37:40;;;;;;;9.93;9.13;;;20.30;54.70;;;;;;5035903;28;21043;-49
2022/12/09 06:40:09;;;;;;;9.70;8.77;;;20.30;54.50;;;;;;5034052;28;20445;-57
2022/12/09 06:42:36;;;;;;;10.07;7.93;;;20.30;54.30;;;;;;5034129;28;20524;-53
2022/12/09 06:45:04;;;;;;;9.13;8.10;;;20.30;54.10;;;;;;5033887;28;20469;-53
2022/12/09 06:47:30;;;;;;;8.23;7.43;;;20.30;54.00;;;;;;5034650;28;20972;-53
2022/12/09 06:50:00;;;;;;;7.80;7.20;;;20.30;53.80;;;;;;5034267;28;20536;-53
2022/12/09 06:52:27;;;;;;;8.33;7.67;;;20.30;53.60;;;;;;5033992;28;20445;-56
2022/12/09 06:54:54;;;;;;;9.27;8.37;;;20.30;53.50;;;;;;5033983;28;20829;-56
2022/12/09 06:57:22;;;;;;;7.20;6.57;;;20.30;53.40;;;;;;5034132;28;20441;-56
2022/12/09 06:59:49;;;;;;;7.63;7.03;;;20.30;53.30;;;;;;5034368;28;20524;-51
2022/12/09 07:02:16;;;;;;;7.70;7.20;;;20.30;53.10;;;;;;5034209;28;20924;-49
2022/12/09 07:04:43;;;;;;;8.07;7.47;;;20.30;53.00;;;;;;5034843;28;20456;-51
2022/12/09 07:07:11;;;;;;;8.17;7.47;;;20.30;52.90;;;;;;5033900;28;20464;-51
2022/12/09 07:09:38;;;;;;;7.50;6.83;;;20.30;52.80;;;;;;5033553;28;20529;-50
2022/12/09 07:12:05;;;;;;;7.87;7.17;;;20.30;52.70;;;;;;5034818;28;20860;-50
2022/12/09 07:14:35;;;;;;;7.60;6.90;;;20.30;52.60;;;;;;5033623;28;20815;-52
2022/12/09 07:17:02;;;;;;;7.70;7.03;;;20.30;52.50;;;;;;5034071;28;20496;-56
2022/12/09 07:19:30;;;;;;;8.33;7.90;;;20.30;52.40;;;;;;5034282;28;20445;-52
2022/12/09 07:21:57;;;;;;;7.60;6.90;;;20.40;53.00;;;;;;5035368;28;20444;-50
2022/12/09 07:24:24;;;;;;;7.50;6.90;;;20.40;52.30;;;;;;5034805;28;20449;-54
2022/12/09 07:26:52;;;;;;;9.23;6.90;;;20.40;52.20;;;;;;5035128;28;20475;-54
2022/12/09 07:29:19;;;;;;;7.77;7.20;;;20.40;52.10;;;;;;5033531;28;20880;-51
2022/12/09 07:31:47;;;;;;;7.93;7.43;;;20.40;52.00;;;;;;5034296;28;21111;-53
2022/12/09 07:34:14;;;;;;;7.60;6.90;;;20.40;51.90;;;;;;5033784;28;20503;-50
2022/12/09 07:36:41;;;;;;;7.40;6.80;;;20.50;51.80;;;;;;5033238;28;20465;-51
2022/12/09 07:39:11;;;;;;;6.63;6.10;;;20.40;51.70;;;;;;5033860;28;20449;-53
2022/12/09 07:41:38;;;;;;;7.20;6.87;;;20.40;51.60;;;;;;5034356;28;20524;-57
2022/12/09 07:44:05;;;;;;;6.93;6.33;;;20.40;51.50;;;;;;5033330;28;20471;-55
2022/12/09 07:46:32;;;;;;;7.50;7.07;;;20.40;51.40;;;;;;5082648;23;20908;-52
2022/12/09 07:49:02;;;;;;;7.10;6.70;;;20.40;51.40;;;;;;5045844;28;20506;-55
2022/12/09 07:51:29;;;;;;;7.40;6.70;;;20.40;51.90;;;;;;5051616;28;20912;-53
2022/12/09 07:53:56;;;;;;;6.27;5.97;;;20.40;51.30;;;;;;5052641;28;20449;-53
2022/12/09 07:56:24;;;;;;;6.87;6.47;;;20.40;51.20;;;;;;5052694;28;20466;-53
2022/12/09 07:58:53;;;;;;;6.60;6.20;;;20.40;51.20;;;;;;5052500;28;20455;-57
2022/12/09 08:01:22;;;;;;;7.07;6.60;;;20.40;51.10;;;;;;5052558;28;20444;-54
2022/12/09 08:03:49;;;;;;;6.30;6.00;;;20.30;51.00;;;;;;5052523;28;20535;-55
2022/12/09 08:06:19;;;;;;;7.57;7.10;;;20.30;51.00;;;;;;5052432;28;20456;-53
2022/12/09 08:08:47;;;;;;;7.20;6.83;;;20.30;50.90;;;;;;5052334;28;20440;-54
2022/12/09 08:11:16;;;;;;;6.97;6.67;;;20.30;50.90;;;;;;5052409;28;20571;-52
2022/12/09 08:13:44;;;;;;;6.93;6.50;;;20.30;50.90;;;;;;5052305;28;20446;-52
2022/12/09 08:16:13;;;;;;;5.60;5.50;;;20.30;50.90;;;;;;5052262;28;20994;-52
2022/12/09 08:18:41;;;;;;;6.63;6.43;;;20.30;50.80;;;;;;5052383;28;20535;-52
2022/12/09 08:21:12;;;;;;;6.97;6.67;;;20.30;50.80;;;;;;5052078;28;20433;-52
2022/12/09 08:23:40;;;;;;;7.20;6.70;;;20.30;50.70;;;;;;5052321;28;20827;-52
2022/12/09 08:26:08;;;;;;;6.33;6.13;;;20.30;50.70;;;;;;5052088;28;20503;-51
2022/12/09 08:28:35;;;;;;;6.60;6.40;;;20.40;50.80;;;;;;5052136;28;20931;-51
2022/12/09 08:31:06;;;;;;;7.77;7.20;;;20.40;50.70;;;;;;5051803;28;20850;-54
2022/12/09 08:33:33;;;;;;;7.47;7.00;;;20.40;50.70;;;;;;5052003;28;20539;-52
2022/12/09 08:36:00;;;;;;;7.47;7.00;;;20.40;50.60;;;;;;5051819;28;20476;-52
2022/12/09 08:38:27;;;;;;;6.70;6.40;;;20.40;50.50;;;;;;5052011;28;20448;-52
2022/12/09 08:40:55;;;;;;;7.60;7.03;;;20.50;50.60;;;;;;5051666;28;20535;-54
2022/12/09 08:43:22;;;;;;;6.63;6.33;;;20.50;50.50;;;;;;5051805;28;20448;-54
2022/12/09 08:45:48;;;;;;;6.47;6.17;;;20.50;50.50;;;;;;5051530;28;20994;-52
2022/12/09 08:48:15;;;;;;;7.30;6.90;;;20.50;50.40;;;;;;5051883;28;20444;-50
2022/12/09 08:50:42;;;;;;;7.07;6.67;;;20.50;50.40;;;;;;5051315;28;20450;-52
2022/12/09 08:53:09;;;;;;;6.73;6.53;;;20.50;50.30;;;;;;5051748;28;20811;-52
2022/12/09 08:55:38;;;;;;;7.13;6.73;;;20.50;50.20;;;;;;5051509;28;20503;-52
2022/12/09 08:58:06;;;;;;;6.53;6.33;;;20.50;50.80;;;;;;5051597;28;20510;-52
2022/12/09 09:00:32;;;;;;;7.03;6.73;;;20.50;50.20;;;;;;5051372;28;20440;-53
2022/12/09 09:03:00;;;;;;;6.53;6.13;;;20.50;50.20;;;;;;5051146;28;20830;-53
2022/12/09 09:05:26;;;;;;;6.03;5.83;;;20.50;50.10;;;;;;5051390;28;20474;-52
2022/12/09 09:07:53;;;;;;;6.00;5.80;;;20.50;50.10;;;;;;5051473;28;21014;-52
2022/12/09 09:10:20;;;;;;;6.97;6.77;;;20.50;50.10;;;;;;5051278;28;20440;-51
2022/12/09 09:12:47;;;;;;;6.30;6.10;;;20.40;50.00;;;;;;5051398;28;20849;-53
2022/12/09 09:15:16;;;;;;;6.77;6.57;;;20.40;50.00;;;;;;5051365;28;20452;-51
2022/12/09 09:17:43;;;;;;;6.90;6.60;;;20.40;50.00;;;;;;5051384;28;20455;-55
2022/12/09 09:20:10;;;;;;;6.40;6.20;;;20.40;50.00;;;;;;5051269;28;20527;-52
2022/12/09 09:22:37;;;;;;;5.93;5.73;;;20.40;50.00;;;;;;5051375;28;20523;-54
2022/12/09 09:25:04;;;;;;;6.40;6.10;;;20.40;50.00;;;;;;5051311;28;20880;-52
2022/12/09 09:27:30;;;;;;;6.90;6.60;;;20.30;49.90;;;;;;5051404;28;20444;-53
2022/12/09 09:29:57;;;;;;;6.60;6.20;;;20.30;49.90;;;;;;5051038;28;20444;-54
2022/12/09 09:32:25;;;;;;;6.50;6.30;;;20.30;49.90;;;;;;5051173;28;20486;-52
2022/12/09 09:34:52;;;;;;;5.90;5.70;;;20.30;49.90;;;;;;5051169;28;20458;-52
2022/12/09 09:37:19;;;;;;;8.03;7.63;;;20.30;50.00;;;;;;5051248;28;20487;-56
2022/12/09 09:39:46;;;;;;;7.03;6.73;;;20.30;49.90;;;;;;5051086;28;20455;-51
2022/12/09 09:42:17;;;;;;;6.50;6.30;;;20.30;50.00;;;;;;5051399;28;20436;-54
2022/12/09 09:44:45;;;;;;;6.30;6.10;;;20.30;50.00;;;;;;5051178;28;20450;-54
2022/12/09 09:47:16;;;;;;;6.53;6.33;;;20.30;50.00;;;;;;5051315;28;20480;-54
2022/12/09 09:49:52;;;;;;;6.60;6.30;;;20.40;50.10;;;;;;5050940;28;20440;-55
2022/12/09 09:52:21;;;;;;;6.53;6.23;;;20.40;50.00;;;;;;5051119;28;20479;-55
2022/12/09 09:54:48;;;;;;;5.93;5.83;;;20.50;50.10;;;;;;5051094;28;20531;-53
2022/12/09 09:57:19;;;;;;;6.77;6.50;;;20.50;50.00;;;;;;5051028;28;20555;-53
2022/12/09 10:00:02;;;;;;;6.53;6.23;;;20.50;50.00;;;;;;5050828;28;20444;-51
2022/12/09 10:02:44;;;;;;;6.47;6.23;;;20.50;50.00;;;;;;5051057;28;20444;-53
2022/12/09 10:05:21;;;;;;;6.93;6.63;;;20.50;49.90;;;;;;5051009;28;20443;-52
2022/12/09 10:07:52;;;;;;;6.80;6.60;;;20.60;49.90;;;;;;5050910;28;20530;-54
2022/12/09 10:10:30;;;;;;;6.37;6.13;;;20.60;49.90;;;;;;5050916;28;20955;-54
2022/12/09 10:13:06;;;;;;;5.77;5.47;;;20.60;49.80;;;;;;5050801;28;20484;-52
2022/12/09 10:15:37;;;;;;;6.97;6.67;;;20.60;49.80;;;;;;5053929;28;20468;-55
2022/12/09 10:18:12;;;;;;;5.90;5.77;;;20.60;49.80;;;;;;5054467;28;21025;-52
2022/12/09 10:20:41;;;;;;;6.43;6.23;;;20.60;49.80;;;;;;5054353;28;20440;-52
2022/12/09 10:23:12;;;;;;;6.43;6.23;;;20.60;49.70;;;;;;5054604;28;20496;-52
2022/12/09 10:25:46;;;;;;;7.50;7.20;;;20.60;49.70;;;;;;5054337;28;20985;-51
2022/12/09 10:28:19;;;;;;;6.97;6.70;;;20.60;49.70;;;;;;5054373;28;20454;-53
2022/12/09 10:30:46;;;;;;;7.07;6.80;;;20.60;49.70;;;;;;5054124;28;20823;-53
2022/12/09 10:33:14;;;;;;;6.80;6.53;;;20.60;49.70;;;;;;5054163;28;20486;-53
2022/12/09 10:35:42;;;;;;;7.03;6.70;;;20.60;49.70;;;;;;5054209;28;20830;-51
2022/12/09 10:38:11;;;;;;;6.20;6.00;;;20.60;49.60;;;;;;5054219;28;20821;-54
2022/12/09 10:40:48;;;;;;;6.90;6.60;;;20.50;49.60;;;;;;5053998;28;20444;-55
2022/12/09 10:43:37;;;;;;;6.63;6.23;;;20.50;49.60;;;;;;5054103;28;20922;-53
2022/12/09 10:46:07;;;;;;;6.70;6.40;;;20.50;49.50;;;;;;5053824;28;20471;-52
2022/12/09 10:48:37;;;;;;;7.53;7.17;;;20.50;49.50;;;;;;5053978;28;20534;-53
2022/12/09 10:51:09;;;;;;;6.50;6.30;;;20.50;49.50;;;;;;5053871;28;20446;-53
2022/12/09 10:53:37;;;;;;;6.77;6.57;;;20.50;49.50;;;;;;5054032;28;20440;-52
2022/12/09 10:56:04;;;;;;;6.30;6.10;;;20.50;49.60;;;;;;5053848;28;20464;-54
2022/12/09 10:58:32;;;;;;;6.57;6.37;;;20.50;49.60;;;;;;5053858;28;20939;-51
2022/12/09 11:01:06;;;;;;;6.10;5.90;;;20.40;49.50;;;;;;5053431;28;20447;-52
2022/12/09 11:03:35;;;;;;;6.60;6.37;;;20.40;49.50;;;;;;5053810;28;20824;-53
2022/12/09 11:06:14;;;;;;;6.57;6.37;;;20.40;49.50;;;;;;5053611;28;20542;-53
2022/12/09 11:08:41;;;;;;;6.13;5.83;;;20.40;49.50;;;;;;5053672;28;20527;-53
2022/12/09 11:11:08;;;;;;;6.00;5.80;;;20.40;49.60;;;;;;5053556;28;20443;-54
2022/12/09 11:13:42;;;;;;;6.60;6.40;;;20.40;49.50;;;;;;5053643;28;20846;-51
2022/12/09 11:16:10;;;;;;;6.37;6.17;;;20.40;49.60;;;;;;5053365;28;21000;-52
2022/12/09 11:18:43;;;;;;;6.10;5.90;;;20.40;49.60;;;;;;5053560;28;20521;-54
2022/12/09 11:21:33;;;;;;;6.80;6.40;;;20.40;49.60;;;;;;5053393;28;20460;-54
2022/12/09 11:24:01;;;;;;;6.10;5.90;;;20.40;49.60;;;;;;5053407;28;20440;-53
2022/12/09 11:26:34;;;;;;;6.30;6.13;;;20.40;49.60;;;;;;5053204;28;20462;-54
2022/12/09 11:29:04;;;;;;;5.80;5.60;;;20.50;49.90;;;;;;5053178;28;20436;-56
2022/12/09 11:31:37;;;;;;;5.60;5.50;;;20.50;49.60;;;;;;5053106;28;20442;-53
2022/12/09 11:34:14;;;;;;;5.93;5.73;;;20.50;49.60;;;;;;5053360;28;20534;-55
2022/12/09 11:36:47;;;;;;;6.00;5.80;;;20.50;49.50;;;;;;5053021;28;20475;-52
2022/12/09 11:39:22;;;;;;;5.87;5.63;;;20.50;49.50;;;;;;5052968;28;20510;-51
2022/12/09 11:44:37;;;;;;;5.73;5.53;;;20.60;49.50;;;;;;5053159;28;20997;-55
2022/12/09 11:47:09;;;;;;;5.70;5.50;;;20.60;49.40;;;;;;5052594;28;20559;-52
2022/12/09 11:49:44;;;;;;;5.47;5.27;;;20.60;49.40;;;;;;5052845;28;20800;-54
2022/12/09 11:52:29;;;;;;;5.53;5.43;;;20.60;49.40;;;;;;5052786;28;20476;-53
2022/12/09 11:55:16;;;;;;;5.70;5.50;;;20.60;49.30;;;;;;5052806;28;20447;-51
2022/12/09 11:57:51;;;;;;;5.20;5.10;;;20.60;49.30;;;;;;5052896;28;20450;-51
2022/12/09 12:00:21;;;;;;;5.50;5.40;;;20.60;49.30;;;;;;5052566;28;20450;-54
2022/12/09 12:02:54;;;;;;;6.10;5.87;;;20.60;49.30;;;;;;5052844;28;20464;-54
2022/12/09 12:05:24;;;;;;;6.40;6.13;;;20.60;49.30;;;;;;5052591;28;20464;-55
2022/12/09 12:08:05;;;;;;;5.70;5.60;;;20.60;49.30;;;;;;5053297;28;20440;-57
2022/12/09 12:10:37;;;;;;;5.50;5.40;;;20.60;49.30;;;;;;5054743;28;21020;-57
2022/12/09 12:13:12;;;;;;;5.77;5.57;;;20.60;49.30;;;;;;5054387;28;20578;-54
2022/12/09 12:15:47;;;;;;;5.70;5.50;;;20.60;49.30;;;;;;5055053;28;20467;-56
2022/12/09 12:18:18;;;;;;;5.33;5.23;;;20.50;49.20;;;;;;5055092;28;20534;-53
2022/12/09 12:21:06;;;;;;;5.90;5.60;;;20.50;49.20;;;;;;5054912;28;20547;-56
2022/12/09 12:24:01;;;;;;;6.50;6.30;;;20.50;49.20;;;;;;5055746;28;20853;-52
2022/12/09 12:26:34;;;;;;;6.20;6.00;;;20.50;49.20;;;;;;5052451;28;20468;-55
2022/12/09 12:29:17;;;;;;;6.10;5.83;;;20.50;49.20;;;;;;5052113;28;20444;-52
2022/12/09 12:32:09;;;;;;;6.20;6.00;;;20.50;49.20;;;;;;5052102;28;20440;-53
2022/12/09 12:34:44;;;;;;;5.97;5.77;;;20.50;49.20;;;;;;5052116;28;21014;-52
2022/12/09 12:37:25;;;;;;;6.07;5.87;;;20.50;49.20;;;;;;5051429;28;20569;-54
2022/12/09 12:40:00;;;;;;;5.30;5.20;;;20.50;49.20;;;;;;5051861;28;20818;-52
2022/12/09 12:42:37;;;;;;;5.53;5.43;;;20.50;49.20;;;;;;5052080;28;20814;-57
2022/12/09 12:48:06;;;;;;;5.80;5.70;;;20.40;49.20;;;;;;5051913;28;20788;-52
2022/12/09 12:50:55;;;;;;;5.63;5.50;;;20.40;49.20;;;;;;5051739;28;20437;-53
2022/12/09 12:53:35;;;;;;;5.30;5.20;;;20.50;49.30;;;;;;5051779;28;20488;-56
2022/12/09 12:56:08;;;;;;;6.57;6.07;;;20.50;49.40;;;;;;5051614;28;20546;-52
2022/12/09 12:58:52;;;;;;;5.27;5.17;;;20.50;49.30;;;;;;5051563;28;20810;-52
2022/12/09 13:01:28;;;;;;;5.50;5.30;;;20.50;49.30;;;;;;5051676;28;20561;-52
2022/12/09 13:04:03;;;;;;;5.80;5.60;;;20.60;49.30;;;;;;5051655;28;20439;-52